Time;durP1;ratioP1;P1;durP2;ratioP2;P2;SDS_P1;SDS_P2;PMS_P1;PMS_P2;Temp;Humidity;BMP_temperature;BMP_pressure;BME280_temperature;BME280_humidity;BME280_pressure;Samples;Min_cycle;Max_cycle;Signal;HPM_P1;HPM_P2
2024/02/02 00:00:09;;;;;;;12.00;3.42;;;7.40;96.30;;;;;;6241487;23;20008;-62
2024/02/02 00:02:55;;;;;;;14.90;4.63;;;7.40;96.40;;;;;;6242842;23;20083;-62
2024/02/02 00:05:42;;;;;;;10.65;4.20;;;7.40;96.40;;;;;;6240842;23;20364;-62
2024/02/02 00:08:28;;;;;;;13.63;5.30;;;7.40;96.50;;;;;;6240177;23;20008;-62
2024/02/02 00:11:14;;;;;;;12.38;4.15;;;7.30;96.50;;;;;;6242457;23;20016;-62
2024/02/02 00:14:00;;;;;;;14.98;4.30;;;7.30;96.50;;;;;;6241679;23;20015;-62
2024/02/02 00:16:46;;;;;;;16.83;4.13;;;7.30;96.60;;;;;;6241376;23;20091;-61
2024/02/02 00:19:32;;;;;;;11.25;3.88;;;7.30;96.60;;;;;;6240724;23;20007;-62
2024/02/02 00:22:20;;;;;;;12.23;4.55;;;7.30;96.60;;;;;;6241061;23;20448;-61
2024/02/02 00:25:07;;;;;;;11.88;4.30;;;7.30;96.70;;;;;;6240070;23;20032;-61
2024/02/02 00:27:53;;;;;;;10.70;3.90;;;7.30;96.80;;;;;;6241121;23;20018;-62
2024/02/02 00:30:40;;;;;;;8.63;3.70;;;7.30;96.90;;;;;;6241660;23;20016;-61
2024/02/02 00:33:26;;;;;;;15.02;4.43;;;7.30;96.90;;;;;;6241452;23;20043;-62
2024/02/02 00:36:12;;;;;;;14.77;3.75;;;7.30;97.00;;;;;;6241057;23;20465;-61
2024/02/02 00:38:58;;;;;;;15.52;3.95;;;7.30;97.00;;;;;;6242837;23;20032;-61
2024/02/02 00:41:44;;;;;;;11.05;4.03;;;7.40;97.10;;;;;;6240575;23;20024;-61
2024/02/02 00:44:30;;;;;;;9.55;4.00;;;7.40;97.10;;;;;;6240288;23;20016;-61
2024/02/02 00:47:16;;;;;;;14.18;3.95;;;7.40;97.10;;;;;;6240991;23;20456;-62
2024/02/02 00:50:04;;;;;;;13.30;4.35;;;7.40;97.10;;;;;;6219021;23;20363;-62
2024/02/02 00:52:50;;;;;;;12.02;4.70;;;7.40;97.10;;;;;;6241581;23;20012;-62
2024/02/02 00:55:35;;;;;;;13.88;3.55;;;7.40;97.10;;;;;;6242585;23;20437;-62
2024/02/02 00:58:21;;;;;;;11.20;4.30;;;7.40;97.10;;;;;;6240993;23;20004;-62
2024/02/02 01:01:07;;;;;;;11.15;2.92;;;7.40;97.10;;;;;;6240235;23;20008;-62
2024/02/02 01:03:53;;;;;;;11.90;4.00;;;7.40;97.20;;;;;;6240979;23;20017;-62
2024/02/02 01:06:39;;;;;;;9.82;4.00;;;7.30;97.20;;;;;;6241204;23;20099;-61
2024/02/02 01:09:25;;;;;;;11.70;4.78;;;7.40;97.20;;;;;;6240513;23;20340;-62
2024/02/02 01:12:11;;;;;;;15.82;4.35;;;7.30;97.20;;;;;;6239646;23;20008;-61
2024/02/02 01:14:57;;;;;;;15.98;3.65;;;7.30;97.30;;;;;;6241069;23;20471;-62
2024/02/02 01:17:45;;;;;;;11.80;4.45;;;7.30;97.30;;;;;;6238751;23;20057;-62
2024/02/02 01:20:31;;;;;;;11.00;4.28;;;7.30;97.30;;;;;;6240896;23;20004;-61
2024/02/02 01:23:17;;;;;;;10.27;3.15;;;7.30;97.40;;;;;;6240123;23;20403;-60
2024/02/02 01:26:04;;;;;;;12.60;3.97;;;7.30;97.40;;;;;;6240607;23;20024;-61
2024/02/02 01:28:50;;;;;;;10.10;4.70;;;7.30;97.40;;;;;;6241463;23;20061;-60
2024/02/02 01:31:36;;;;;;;13.35;4.18;;;7.20;97.50;;;;;;6240803;23;20004;-60
2024/02/02 01:34:22;;;;;;;19.63;4.75;;;7.20;97.60;;;;;;6240384;23;20101;-61
2024/02/02 01:37:08;;;;;;;11.25;4.22;;;7.30;97.60;;;;;;6239950;23;20008;-61
2024/02/02 01:39:54;;;;;;;13.18;4.35;;;7.30;97.60;;;;;;6240151;23;20008;-60
2024/02/02 01:42:40;;;;;;;14.85;4.13;;;7.30;97.60;;;;;;6240327;23;20017;-61
2024/02/02 01:45:26;;;;;;;13.65;3.97;;;7.30;97.60;;;;;;6239676;23;20016;-60
2024/02/02 01:48:12;;;;;;;11.40;4.82;;;7.30;97.70;;;;;;6242105;23;20012;-61
2024/02/02 01:50:58;;;;;;;17.17;5.03;;;7.30;97.70;;;;;;6239611;23;20015;-61
2024/02/02 01:53:44;;;;;;;11.80;3.35;;;7.30;97.70;;;;;;6241557;23;20255;-62
2024/02/02 01:56:30;;;;;;;11.57;4.78;;;7.30;97.80;;;;;;6241862;23;20388;-61
2024/02/02 01:59:16;;;;;;;18.48;4.88;;;7.30;97.80;;;;;;6242219;23;20004;-62
2024/02/02 02:02:03;;;;;;;10.73;4.03;;;7.40;97.80;;;;;;6240549;23;20044;-61
2024/02/02 02:04:49;;;;;;;14.90;4.68;;;7.30;97.80;;;;;;6239957;23;20024;-61
2024/02/02 02:07:35;;;;;;;21.38;5.55;;;7.30;97.80;;;;;;6239787;23;20403;-62
2024/02/02 02:10:24;;;;;;;19.77;5.28;;;7.40;97.80;;;;;;6239790;23;20023;-63
2024/02/02 02:13:10;;;;;;;14.32;4.22;;;7.40;97.90;;;;;;6239803;23;20069;-63
2024/02/02 02:15:56;;;;;;;9.75;3.70;;;7.40;97.90;;;;;;6240060;23;20380;-63
2024/02/02 02:18:42;;;;;;;16.45;5.15;;;7.30;97.90;;;;;;6239693;23;20314;-62
2024/02/02 02:21:28;;;;;;;11.52;4.28;;;7.40;97.90;;;;;;6239963;23;20012;-63
2024/02/02 02:24:14;;;;;;;11.00;4.28;;;7.40;97.90;;;;;;6239716;23;20016;-63
2024/02/02 02:27:00;;;;;;;16.60;5.53;;;7.40;97.90;;;;;;6241459;23;20023;-63
2024/02/02 02:29:47;;;;;;;16.77;4.38;;;7.40;98.00;;;;;;6240035;23;20319;-63
2024/02/02 02:32:34;;;;;;;11.57;5.57;;;7.40;98.00;;;;;;6240571;23;20437;-63
2024/02/02 02:35:20;;;;;;;13.93;4.85;;;7.40;98.00;;;;;;6240296;23;20063;-63
2024/02/02 02:38:06;;;;;;;15.05;5.03;;;7.40;98.10;;;;;;6239356;23;20011;-62
2024/02/02 02:40:52;;;;;;;16.02;5.65;;;7.40;98.10;;;;;;6240524;23;20059;-62
2024/02/02 02:43:38;;;;;;;13.88;4.57;;;7.50;98.10;;;;;;6241711;23;20089;-62
2024/02/02 02:46:24;;;;;;;17.95;4.90;;;7.50;98.10;;;;;;6239248;23;20433;-62
2024/02/02 02:49:10;;;;;;;16.65;4.72;;;7.50;98.10;;;;;;6238929;23;20009;-62
2024/02/02 02:51:56;;;;;;;11.80;4.25;;;7.50;98.10;;;;;;6240026;23;20019;-63
2024/02/02 02:54:41;;;;;;;12.52;4.68;;;7.60;98.10;;;;;;6241083;23;20008;-63
2024/02/02 02:57:27;;;;;;;12.20;4.50;;;7.60;98.20;;;;;;6240028;23;20008;-63
2024/02/02 03:00:14;;;;;;;13.55;5.00;;;7.60;98.20;;;;;;6239931;23;20016;-63
2024/02/02 03:03:00;;;;;;;11.93;3.58;;;7.60;98.20;;;;;;6241317;23;20016;-63
2024/02/02 03:05:46;;;;;;;12.07;4.78;;;7.70;98.20;;;;;;6242919;23;20020;-64
2024/02/02 03:08:32;;;;;;;12.93;4.15;;;7.60;98.20;;;;;;6241289;23;20015;-63
2024/02/02 03:11:18;;;;;;;14.02;4.72;;;7.70;98.20;;;;;;6220916;23;20077;-62
2024/02/02 03:14:05;;;;;;;18.27;5.88;;;7.70;98.40;;;;;;6241888;23;20091;-62
2024/02/02 03:16:51;;;;;;;16.33;4.65;;;7.70;98.20;;;;;;6238643;23;20012;-62
2024/02/02 03:19:37;;;;;;;14.90;3.83;;;7.70;98.20;;;;;;6241549;23;20398;-63
2024/02/02 03:22:23;;;;;;;11.15;4.70;;;7.70;98.30;;;;;;6241188;23;20082;-63
2024/02/02 03:25:09;;;;;;;17.55;4.63;;;7.70;98.30;;;;;;6242027;23;20051;-62
2024/02/02 03:27:55;;;;;;;11.90;3.42;;;7.70;98.20;;;;;;6241613;23;20091;-63
2024/02/02 03:30:41;;;;;;;12.45;4.65;;;7.60;98.20;;;;;;6242950;23;20082;-62
2024/02/02 03:33:27;;;;;;;13.27;5.05;;;7.60;98.20;;;;;;6242124;23;20330;-61
2024/02/02 03:36:13;;;;;;;14.10;5.70;;;7.60;98.20;;;;;;6221057;23;20012;-62
2024/02/02 03:38:59;;;;;;;15.40;4.70;;;7.60;98.30;;;;;;6241502;23;20016;-61
2024/02/02 03:41:45;;;;;;;16.92;5.90;;;7.60;98.30;;;;;;6240360;23;20031;-62
2024/02/02 03:44:31;;;;;;;18.90;5.72;;;7.60;98.30;;;;;;6240927;23;20026;-62
2024/02/02 03:47:17;;;;;;;15.13;5.65;;;7.70;98.40;;;;;;6220832;23;20087;-61
2024/02/02 03:50:04;;;;;;;14.38;6.10;;;7.70;98.30;;;;;;6241399;23;20066;-62
2024/02/02 03:52:50;;;;;;;8.63;4.90;;;7.80;98.40;;;;;;6241026;23;20015;-62
2024/02/02 03:55:36;;;;;;;22.83;7.60;;;7.70;98.30;;;;;;6241319;23;20020;-62
2024/02/02 03:58:22;;;;;;;10.00;5.43;;;7.70;98.30;;;;;;6240377;23;20008;-62
2024/02/02 04:01:08;;;;;;;15.77;5.90;;;7.70;98.30;;;;;;6240948;23;20090;-62
2024/02/02 04:03:54;;;;;;;18.10;6.45;;;7.70;98.30;;;;;;6239621;23;20445;-62
2024/02/02 04:06:40;;;;;;;15.07;5.10;;;7.70;98.30;;;;;;6240947;23;20349;-62
2024/02/02 04:09:26;;;;;;;13.27;5.22;;;7.70;98.30;;;;;;6240073;23;20061;-62
2024/02/02 04:12:12;;;;;;;16.73;5.75;;;7.80;98.30;;;;;;6220136;23;20050;-62
2024/02/02 04:14:58;;;;;;;19.25;7.25;;;7.70;98.30;;;;;;6242289;23;20008;-61
2024/02/02 04:17:44;;;;;;;17.13;5.57;;;7.80;98.30;;;;;;6240315;23;20053;-61
2024/02/02 04:20:30;;;;;;;13.10;6.00;;;7.80;98.30;;;;;;6241810;23;20032;-62
2024/02/02 04:23:16;;;;;;;16.40;5.78;;;7.80;98.40;;;;;;6241114;23;20429;-61
2024/02/02 04:26:02;;;;;;;20.45;6.50;;;7.80;98.30;;;;;;6241702;23;20035;-62
2024/02/02 04:28:48;;;;;;;17.83;6.35;;;7.70;98.30;;;;;;6240353;23;20012;-62
2024/02/02 04:31:34;;;;;;;14.15;5.05;;;7.70;98.30;;;;;;6241187;23;20441;-61
2024/02/02 04:34:20;;;;;;;16.48;5.90;;;7.70;98.30;;;;;;6239675;23;20445;-62
2024/02/02 04:37:06;;;;;;;12.02;5.00;;;7.70;98.40;;;;;;6241056;23;20015;-62
2024/02/02 04:39:52;;;;;;;22.05;5.30;;;7.70;98.40;;;;;;6240644;23;20436;-63
2024/02/02 04:42:38;;;;;;;16.50;5.32;;;7.70;98.30;;;;;;6240669;23;20020;-62
2024/02/02 04:45:24;;;;;;;16.45;5.13;;;7.70;98.30;;;;;;6239921;23;20024;-63
2024/02/02 04:48:10;;;;;;;15.63;5.90;;;7.70;98.30;;;;;;6243348;23;20008;-63
2024/02/02 04:50:56;;;;;;;15.93;5.22;;;7.70;98.30;;;;;;6240637;23;20008;-62
2024/02/02 04:53:42;;;;;;;15.98;7.00;;;7.70;98.30;;;;;;6240107;23;20511;-62
2024/02/02 04:56:28;;;;;;;14.40;6.30;;;7.70;98.30;;;;;;6240290;23;20013;-63
2024/02/02 04:59:14;;;;;;;15.63;6.05;;;7.60;98.30;;;;;;6240859;23;20013;-62
2024/02/02 05:02:00;;;;;;;16.90;6.65;;;7.60;98.40;;;;;;6221159;23;20008;-62
2024/02/02 05:04:46;;;;;;;12.75;4.82;;;7.60;98.40;;;;;;6240291;23;20095;-61
2024/02/02 05:07:32;;;;;;;13.18;6.20;;;7.60;98.40;;;;;;6239497;23;20035;-65
2024/02/02 05:10:18;;;;;;;19.30;6.95;;;7.60;98.40;;;;;;6242369;23;20388;-61
2024/02/02 05:13:04;;;;;;;15.63;5.47;;;7.60;98.40;;;;;;6240271;23;20099;-62
2024/02/02 05:15:50;;;;;;;14.52;4.88;;;7.60;98.40;;;;;;6240540;23;20416;-61
2024/02/02 05:18:36;;;;;;;18.00;5.13;;;7.60;98.30;;;;;;6238015;23;20090;-61
2024/02/02 05:21:22;;;;;;;10.75;4.85;;;7.60;98.40;;;;;;6240662;23;20018;-62
2024/02/02 05:24:09;;;;;;;11.35;4.75;;;7.60;98.40;;;;;;6240131;23;20055;-61
2024/02/02 05:26:55;;;;;;;14.77;5.53;;;7.70;98.40;;;;;;6239186;23;20069;-61
2024/02/02 05:29:42;;;;;;;12.93;4.75;;;7.70;98.30;;;;;;6241731;23;20012;-60
2024/02/02 05:32:28;;;;;;;12.13;5.05;;;7.70;98.30;;;;;;6240446;23;20042;-61
2024/02/02 05:35:14;;;;;;;11.93;6.05;;;7.60;98.20;;;;;;6240777;23;20012;-60
2024/02/02 05:38:00;;;;;;;14.98;4.88;;;7.60;98.30;;;;;;6240134;23;20004;-61
2024/02/02 05:40:46;;;;;;;11.35;5.32;;;7.60;98.30;;;;;;6239306;23;20008;-61
2024/02/02 05:43:32;;;;;;;33.60;5.60;;;7.60;98.30;;;;;;6240717;23;20151;-61
2024/02/02 05:46:18;;;;;;;11.75;4.28;;;7.60;98.30;;;;;;6240940;23;20349;-62
2024/02/02 05:49:05;;;;;;;17.25;6.82;;;7.60;98.30;;;;;;6240328;23;20016;-61
2024/02/02 05:51:51;;;;;;;11.45;4.80;;;7.60;98.30;;;;;;6241002;23;20028;-62
2024/02/02 05:54:37;;;;;;;13.48;4.18;;;7.60;98.40;;;;;;6240588;23;20050;-61
2024/02/02 05:57:23;;;;;;;9.52;4.30;;;7.60;98.40;;;;;;6240837;23;20012;-61
2024/02/02 06:00:10;;;;;;;16.52;5.30;;;7.70;98.40;;;;;;6239483;23;20012;-61
2024/02/02 06:02:56;;;;;;;16.08;5.28;;;7.70;98.30;;;;;;6218084;23;20000;-61
2024/02/02 06:05:42;;;;;;;12.05;4.75;;;7.60;98.30;;;;;;6239834;23;20110;-62
2024/02/02 06:08:28;;;;;;;11.45;4.35;;;7.70;98.40;;;;;;6239601;23;20022;-62
2024/02/02 06:11:14;;;;;;;11.75;5.60;;;7.70;98.40;;;;;;6240156;23;20011;-61
2024/02/02 06:14:00;;;;;;;16.92;5.65;;;7.70;98.40;;;;;;6241698;23;20016;-61
2024/02/02 06:16:48;;;;;;;11.27;5.50;;;7.70;98.40;;;;;;6239851;23;20022;-62
2024/02/02 06:19:34;;;;;;;15.90;6.05;;;7.70;98.40;;;;;;6240085;23;20012;-61
2024/02/02 06:22:21;;;;;;;11.32;4.32;;;7.80;98.40;;;;;;6238823;23;20066;-61
2024/02/02 06:25:07;;;;;;;11.73;4.97;;;7.80;98.40;;;;;;6235295;23;20103;-61
2024/02/02 06:27:53;;;;;;;13.38;4.97;;;7.80;98.50;;;;;;6240364;23;20012;-61
2024/02/02 06:30:40;;;;;;;16.20;5.47;;;7.80;98.50;;;;;;6219109;23;20077;-60
2024/02/02 06:33:26;;;;;;;13.68;4.85;;;7.90;98.60;;;;;;6241923;23;20009;-61
2024/02/02 06:36:12;;;;;;;18.00;6.25;;;7.80;98.40;;;;;;6240671;23;20032;-61
2024/02/02 06:38:58;;;;;;;21.65;5.25;;;7.80;98.40;;;;;;6240258;23;20012;-63
2024/02/02 06:41:44;;;;;;;15.35;5.82;;;7.80;98.50;;;;;;6241075;23;20348;-62
2024/02/02 06:44:29;;;;;;;13.68;4.88;;;7.80;98.50;;;;;;6241542;23;20020;-62
2024/02/02 06:47:16;;;;;;;18.75;6.47;;;7.80;98.50;;;;;;6243916;23;20494;-63
2024/02/02 06:50:04;;;;;;;13.75;5.78;;;7.80;98.40;;;;;;6240817;23;20027;-63
2024/02/02 06:52:50;;;;;;;10.93;4.90;;;7.80;98.50;;;;;;6241807;23;20008;-63
2024/02/02 06:55:36;;;;;;;16.25;5.85;;;7.80;98.50;;;;;;6242984;23;20012;-62
2024/02/02 06:58:41;;;;;;;12.48;5.22;;;7.80;98.50;;;;;;6239832;23;20019;-61
2024/02/02 07:01:27;;;;;;;15.57;5.90;;;7.90;98.50;;;;;;6242566;23;20019;-62
2024/02/02 07:04:14;;;;;;;12.30;5.47;;;7.90;98.50;;;;;;6242203;23;20024;-65
2024/02/02 07:07:00;;;;;;;14.68;5.55;;;8.00;98.50;;;;;;6242576;23;20004;-62
2024/02/02 07:09:52;;;;;;;17.20;5.50;;;8.00;98.50;;;;;;6242562;23;20012;-61
2024/02/02 07:12:57;;;;;;;17.92;6.38;;;8.00;98.50;;;;;;6242935;23;20433;-62
2024/02/02 07:15:43;;;;;;;20.38;5.80;;;8.10;98.50;;;;;;6241875;23;20058;-62
2024/02/02 07:18:38;;;;;;;15.98;5.57;;;8.10;98.40;;;;;;6241167;23;20009;-61
2024/02/02 07:21:31;;;;;;;17.65;5.78;;;8.10;98.40;;;;;;6242388;23;20031;-62
2024/02/02 07:24:17;;;;;;;11.10;4.65;;;8.10;98.30;;;;;;6241290;23;20023;-63
2024/02/02 07:27:04;;;;;;;18.63;5.15;;;8.10;98.30;;;;;;6241429;23;20526;-64
2024/02/02 07:29:50;;;;;;;12.52;5.13;;;8.20;98.30;;;;;;6220256;23;20019;-62
2024/02/02 07:32:36;;;;;;;11.85;4.22;;;8.20;98.30;;;;;;6241236;23;20514;-62
2024/02/02 07:35:31;;;;;;;17.08;4.60;;;8.20;98.20;;;;;;6241686;23;20019;-62
2024/02/02 07:38:49;;;;;;;13.48;4.50;;;8.20;98.20;;;;;;6242673;23;20012;-62
2024/02/02 07:41:35;;;;;;;15.18;5.47;;;8.20;98.20;;;;;;6242688;23;20020;-61
2024/02/02 07:44:21;;;;;;;11.82;5.13;;;8.20;98.20;;;;;;6240553;23;20103;-61
2024/02/02 07:47:07;;;;;;;13.05;5.72;;;8.30;98.20;;;;;;6242867;23;20012;-62
2024/02/02 07:49:53;;;;;;;13.95;5.15;;;8.30;98.20;;;;;;6239657;23;20460;-63
2024/02/02 07:52:39;;;;;;;9.80;4.07;;;8.30;98.10;;;;;;6240437;23;20008;-62
2024/02/02 07:55:25;;;;;;;11.15;5.22;;;8.40;98.20;;;;;;6240204;23;20019;-62
2024/02/02 07:58:11;;;;;;;20.58;5.32;;;8.40;98.20;;;;;;6241129;23;20004;-61
2024/02/02 08:00:57;;;;;;;15.10;5.63;;;8.40;98.10;;;;;;6240253;23;20012;-61
2024/02/02 08:03:43;;;;;;;12.30;4.90;;;8.40;98.10;;;;;;6242308;23;20383;-62
2024/02/02 08:06:29;;;;;;;14.57;5.20;;;8.50;98.10;;;;;;6240568;23;20012;-63
2024/02/02 08:09:15;;;;;;;12.88;4.65;;;8.50;98.00;;;;;;6220436;23;20010;-62
2024/02/02 08:12:01;;;;;;;13.00;4.57;;;8.50;98.00;;;;;;6240980;23;20449;-62
2024/02/02 08:14:47;;;;;;;16.80;5.95;;;8.60;97.90;;;;;;6237311;23;20004;-62
2024/02/02 08:17:33;;;;;;;14.70;6.15;;;8.60;97.90;;;;;;6241000;23;20008;-63
2024/02/02 08:20:19;;;;;;;15.85;5.70;;;8.60;97.80;;;;;;6239891;23;20016;-62
2024/02/02 08:23:06;;;;;;;13.40;5.15;;;8.60;97.80;;;;;;6240796;23;20111;-62
2024/02/02 08:25:52;;;;;;;17.70;6.22;;;8.60;97.80;;;;;;6240794;23;20016;-62
2024/02/02 08:28:39;;;;;;;18.45;5.25;;;8.60;97.70;;;;;;6240685;23;20453;-62
2024/02/02 08:31:25;;;;;;;13.68;5.78;;;8.60;97.70;;;;;;6239798;23;20039;-61
2024/02/02 08:34:12;;;;;;;12.88;5.30;;;8.60;97.60;;;;;;6241763;23;20086;-62
2024/02/02 08:37:01;;;;;;;15.52;4.93;;;8.60;97.60;;;;;;6241628;23;20012;-62
2024/02/02 08:39:47;;;;;;;17.10;5.18;;;8.60;97.50;;;;;;6240327;23;20008;-62
2024/02/02 08:42:33;;;;;;;13.45;4.40;;;8.60;97.50;;;;;;6238271;23;20050;-63
2024/02/02 08:45:42;;;;;;;12.10;5.03;;;8.60;97.50;;;;;;6239467;23;20023;-62
2024/02/02 08:48:39;;;;;;;12.65;5.40;;;8.60;97.40;;;;;;6240408;23;20004;-63
2024/02/02 08:51:49;;;;;;;11.13;5.68;;;8.70;97.50;;;;;;6240194;23;20111;-62
2024/02/02 08:54:36;;;;;;;24.92;6.97;;;8.80;97.40;;;;;;6241921;23;20019;-62
2024/02/02 08:57:32;;;;;;;12.77;5.75;;;8.80;97.40;;;;;;6242427;23;20375;-62
2024/02/02 09:00:39;;;;;;;8.90;5.13;;;8.90;97.40;;;;;;6240401;23;20031;-62
2024/02/02 09:03:43;;;;;;;16.10;6.30;;;9.00;97.30;;;;;;6239438;23;20012;-62
2024/02/02 09:06:29;;;;;;;18.23;5.88;;;9.10;97.20;;;;;;6240289;23;20008;-61
2024/02/02 09:09:17;;;;;;;13.10;5.78;;;9.10;97.10;;;;;;6236730;23;20548;-63
2024/02/02 09:12:03;;;;;;;11.70;5.82;;;9.10;97.10;;;;;;6240292;23;20072;-63
2024/02/02 09:14:49;;;;;;;17.27;6.10;;;9.20;97.00;;;;;;6239917;23;20008;-62
2024/02/02 09:17:35;;;;;;;12.82;5.57;;;9.20;96.90;;;;;;6242203;23;20014;-63
2024/02/02 09:20:43;;;;;;;16.10;6.00;;;9.20;96.80;;;;;;6241292;23;20154;-63
2024/02/02 09:23:32;;;;;;;13.38;5.18;;;9.20;96.60;;;;;;6241686;23;20319;-63
2024/02/02 09:26:50;;;;;;;14.55;6.63;;;9.30;96.60;;;;;;6241599;23;20011;-63
2024/02/02 09:29:43;;;;;;;15.57;6.60;;;9.30;96.60;;;;;;6148595;23;20446;-63
2024/02/02 09:32:29;;;;;;;13.68;6.13;;;9.30;96.60;;;;;;6145932;23;20081;-64
2024/02/02 09:35:36;;;;;;;10.93;6.07;;;9.30;96.60;;;;;;6147446;23;20016;-64
2024/02/02 09:38:26;;;;;;;15.73;5.72;;;9.30;96.60;;;;;;6147505;23;20188;-62
2024/02/02 09:41:32;;;;;;;20.05;6.32;;;9.30;96.60;;;;;;6147128;23;20097;-62
2024/02/02 09:44:26;;;;;;;;;;;9.30;96.60;;;;;;6149148;23;20021;-63
2024/02/02 09:47:33;;;;;;;14.77;6.03;;;9.30;96.70;;;;;;6148404;23;19955;-63
2024/02/02 09:50:44;;;;;;;8.98;4.90;;;9.30;96.70;;;;;;6147680;23;20010;-62
2024/02/02 09:54:00;;;;;;;11.13;5.22;;;9.30;96.70;;;;;;6145630;23;20013;-63
2024/02/02 09:57:19;;;;;;;11.95;5.13;;;9.30;96.70;;;;;;6146039;23;20403;-62
2024/02/02 10:00:18;;;;;;;10.27;5.13;;;9.30;96.80;;;;;;6149196;23;20009;-62
2024/02/02 10:03:22;;;;;;;10.48;4.85;;;9.30;96.80;;;;;;6147179;23;20018;-62
2024/02/02 10:06:26;;;;;;;202.27;58.08;;;9.30;96.90;;;;;;6237644;23;20127;-62
2024/02/02 10:09:17;;;;;;;62.97;17.35;;;9.30;97.10;;;;;;6238458;23;20008;-63
2024/02/02 10:12:34;;;;;;;14.68;6.50;;;9.40;96.90;;;;;;6239988;23;20071;-63
2024/02/02 10:15:23;;;;;;;11.60;5.40;;;9.40;96.80;;;;;;6244666;23;20011;-63
2024/02/02 10:18:28;;;;;;;12.32;5.32;;;9.40;96.80;;;;;;6241602;23;20004;-63
2024/02/02 10:21:17;;;;;;;10.60;5.00;;;9.50;96.80;;;;;;6244221;23;20015;-63
2024/02/02 10:24:14;;;;;;;10.30;4.90;;;9.50;96.80;;;;;;6242504;23;20460;-63
2024/02/02 10:27:09;;;;;;;10.18;4.85;;;9.50;96.80;;;;;;6244102;23;20050;-63
2024/02/02 10:30:23;;;;;;;8.43;5.03;;;9.50;96.80;;;;;;6244124;23;20008;-64
2024/02/02 10:33:36;;;;;;;12.38;4.45;;;9.60;96.80;;;;;;6242896;23;20012;-64
2024/02/02 10:36:41;;;;;;;9.40;4.53;;;9.60;96.80;;;;;;6243936;23;20026;-63
2024/02/02 10:40:06;;;;;;;10.05;4.53;;;9.70;96.80;;;;;;6242467;23;20040;-63
2024/02/02 10:43:05;;;;;;;6.88;3.95;;;9.80;96.60;;;;;;6242826;23;20024;-63
2024/02/02 10:46:00;;;;;;;10.88;3.65;;;9.80;96.40;;;;;;6242371;23;20031;-63
2024/02/02 10:49:04;;;;;;;9.88;4.40;;;9.90;96.40;;;;;;6241646;23;20019;-63
2024/02/02 10:52:16;;;;;;;7.18;3.20;;;9.90;96.40;;;;;;6242167;23;20162;-64
2024/02/02 10:55:14;;;;;;;8.38;3.55;;;9.90;96.20;;;;;;6237923;23;20061;-62
2024/02/02 10:58:32;;;;;;;7.63;3.42;;;10.00;96.20;;;;;;6243271;23;20012;-62
2024/02/02 11:01:39;;;;;;;7.38;3.70;;;10.00;96.10;;;;;;6243015;23;20042;-63
2024/02/02 11:04:53;;;;;;;6.88;3.28;;;10.10;96.10;;;;;;6243249;23;20035;-64
2024/02/02 11:07:47;;;;;;;6.75;3.17;;;10.10;96.00;;;;;;6222411;23;20085;-63
2024/02/02 11:10:56;;;;;;;6.57;3.25;;;10.10;95.90;;;;;;6244248;23;20268;-63
2024/02/02 11:14:19;;;;;;;5.50;3.05;;;10.20;95.70;;;;;;6244207;23;20096;-63
2024/02/02 11:17:19;;;;;;;7.20;2.75;;;10.20;95.70;;;;;;6150917;23;20009;-62
2024/02/02 11:20:17;;;;;;;5.25;3.13;;;10.30;95.70;;;;;;6150504;23;20013;-63
2024/02/02 11:23:24;;;;;;;9.55;3.28;;;10.30;95.60;;;;;;6151499;23;20083;-63
2024/02/02 11:26:26;;;;;;;12.20;3.53;;;10.30;95.40;;;;;;6150784;23;20092;-64
2024/02/02 11:29:22;;;;;;;8.57;3.10;;;10.30;95.30;;;;;;6149838;23;20076;-63
2024/02/02 11:32:39;;;;;;;8.93;3.40;;;10.40;95.20;;;;;;6130376;23;20014;-64
2024/02/02 11:35:35;;;;;;;16.15;3.97;;;10.40;95.10;;;;;;6148032;23;20013;-67
2024/02/02 11:38:44;;;;;;;9.18;4.38;;;10.40;95.10;;;;;;6150081;23;20071;-63
2024/02/02 11:41:33;;;;;;;8.00;4.10;;;10.50;95.00;;;;;;6149706;23;20022;-63
2024/02/02 11:44:19;;;;;;;17.58;4.75;;;10.50;95.00;;;;;;6151626;23;20028;-63
2024/02/02 11:47:06;;;;;;;9.18;3.92;;;10.50;95.00;;;;;;6149632;23;20006;-62
2024/02/02 11:50:04;;;;;;;7.97;4.05;;;10.60;94.90;;;;;;6148308;23;20024;-63
2024/02/02 11:53:06;;;;;;;8.50;4.00;;;10.70;94.80;;;;;;6185025;23;20008;-63
2024/02/02 11:56:03;;;;;;;9.95;5.00;;;10.70;94.70;;;;;;6243253;23;20012;-63
2024/02/02 11:59:04;;;;;;;7.75;3.80;;;10.70;94.60;;;;;;6242113;23;20261;-64
2024/02/02 12:02:30;;;;;;;6.63;3.58;;;10.70;94.50;;;;;;6242268;23;20008;-63
2024/02/02 12:05:24;;;;;;;8.20;4.60;;;10.80;94.50;;;;;;6241121;23;20074;-63
2024/02/02 12:08:28;;;;;;;9.90;5.28;;;10.80;94.50;;;;;;6240334;23;20055;-63
2024/02/02 12:11:16;;;;;;;13.48;5.65;;;10.80;94.40;;;;;;6240732;23;20012;-61
2024/02/02 12:14:07;;;;;;;11.80;5.35;;;10.80;94.50;;;;;;6241802;23;20031;-61
2024/02/02 12:16:53;;;;;;;14.40;4.53;;;10.80;94.40;;;;;;6242213;23;20011;-62
2024/02/02 12:19:40;;;;;;;11.18;3.70;;;10.80;94.40;;;;;;6240202;23;20004;-62
2024/02/02 12:22:27;;;;;;;10.32;3.92;;;10.80;94.30;;;;;;6242280;23;20448;-62
2024/02/02 12:25:15;;;;;;;11.85;4.97;;;10.80;94.20;;;;;;6241433;23;20030;-60
2024/02/02 12:28:01;;;;;;;8.55;4.38;;;10.80;94.10;;;;;;6242158;23;20034;-61
2024/02/02 12:30:47;;;;;;;11.13;3.95;;;10.80;94.10;;;;;;6239858;23;20008;-61
2024/02/02 12:33:33;;;;;;;11.70;4.72;;;10.80;94.20;;;;;;6240892;23;20449;-61
2024/02/02 12:36:21;;;;;;;12.20;4.13;;;10.70;93.90;;;;;;6220126;23;20031;-61
2024/02/02 12:39:07;;;;;;;7.85;4.20;;;10.70;94.00;;;;;;6242469;23;20012;-62
2024/02/02 12:41:55;;;;;;;9.88;4.60;;;10.80;93.90;;;;;;6239586;23;20362;-62
2024/02/02 12:44:41;;;;;;;11.13;4.03;;;10.70;94.00;;;;;;6239415;23;20016;-61
2024/02/02 12:47:27;;;;;;;9.27;3.95;;;10.70;94.00;;;;;;6238749;23;20000;-61
2024/02/02 12:50:18;;;;;;;10.40;4.75;;;10.60;93.90;;;;;;6239779;23;20008;-62
2024/02/02 12:53:04;;;;;;;10.00;4.63;;;10.60;94.00;;;;;;6240667;23;20047;-62
2024/02/02 12:55:50;;;;;;;11.40;5.13;;;10.60;94.00;;;;;;6239761;23;20026;-62
2024/02/02 12:58:37;;;;;;;9.93;4.35;;;10.60;94.00;;;;;;6220051;23;20015;-62
2024/02/02 13:01:24;;;;;;;13.52;4.75;;;10.50;94.00;;;;;;6239092;23;20018;-62
2024/02/02 13:04:12;;;;;;;15.02;6.00;;;10.50;94.00;;;;;;6240307;23;20032;-62
2024/02/02 13:06:59;;;;;;;10.85;4.90;;;10.50;93.90;;;;;;6241413;23;20015;-61
2024/02/02 13:09:50;;;;;;;13.13;5.00;;;10.50;94.00;;;;;;6241074;23;20011;-61
2024/02/02 13:12:47;;;;;;;10.05;5.18;;;10.50;94.10;;;;;;6240261;23;20095;-62
2024/02/02 13:15:33;;;;;;;11.20;3.92;;;10.40;93.90;;;;;;6240083;23;20074;-61
2024/02/02 13:18:20;;;;;;;13.32;5.32;;;10.40;93.90;;;;;;6240071;23;20465;-62
2024/02/02 13:21:29;;;;;;;14.45;5.70;;;10.40;93.90;;;;;;6242463;23;20475;-65
2024/02/02 13:24:18;;;;;;;12.13;4.85;;;10.30;93.90;;;;;;6240545;23;20104;-65
2024/02/02 13:27:05;;;;;;;11.80;5.03;;;10.30;93.90;;;;;;6240430;23;20012;-65
2024/02/02 13:29:56;;;;;;;11.45;5.30;;;10.20;93.90;;;;;;6240441;23;20004;-65
2024/02/02 13:32:42;;;;;;;14.35;5.32;;;10.20;93.90;;;;;;6241722;23;20008;-65
2024/02/02 13:35:31;;;;;;;10.57;4.22;;;10.20;93.90;;;;;;6239787;23;20091;-63
2024/02/02 13:38:17;;;;;;;11.80;4.85;;;10.20;93.90;;;;;;6241034;23;20479;-63
2024/02/02 13:41:04;;;;;;;11.20;5.00;;;10.20;93.90;;;;;;6238025;22;20091;-63
2024/02/02 13:44:04;;;;;;;12.15;5.00;;;10.20;93.90;;;;;;6240032;23;20020;-63
2024/02/02 13:46:51;;;;;;;15.18;5.13;;;10.20;93.90;;;;;;6240401;23;20046;-63
2024/02/02 13:49:39;;;;;;;13.90;5.85;;;10.10;93.90;;;;;;6239754;23;20070;-64
2024/02/02 13:52:25;;;;;;;13.90;4.75;;;10.10;93.90;;;;;;6239577;23;20031;-62
2024/02/02 13:55:14;;;;;;;8.93;4.18;;;10.10;94.00;;;;;;6239461;23;20012;-63
2024/02/02 13:58:00;;;;;;;13.20;5.03;;;10.10;94.00;;;;;;6239464;23;20018;-63
2024/02/02 14:00:46;;;;;;;13.25;5.93;;;10.10;94.00;;;;;;6240240;23;20290;-64
2024/02/02 14:03:32;;;;;;;12.05;5.40;;;10.10;94.00;;;;;;6239340;23;20015;-64
2024/02/02 14:06:18;;;;;;;11.82;5.25;;;10.10;94.00;;;;;;6239920;23;20043;-65
2024/02/02 14:09:04;;;;;;;11.15;4.70;;;10.10;94.00;;;;;;6239163;23;20015;-65
2024/02/02 14:11:59;;;;;;;12.38;5.38;;;10.10;94.00;;;;;;6218065;23;20012;-65
2024/02/02 14:14:45;;;;;;;13.05;5.32;;;10.10;94.00;;;;;;6240629;23;20471;-65
2024/02/02 14:17:32;;;;;;;16.25;5.38;;;10.10;94.00;;;;;;6240468;23;20035;-65
2024/02/02 14:20:24;;;;;;;12.77;6.00;;;10.10;94.00;;;;;;6238125;23;20091;-64
2024/02/02 14:23:14;;;;;;;9.20;4.90;;;10.10;93.90;;;;;;6238377;23;20091;-64
2024/02/02 14:26:09;;;;;;;11.25;4.60;;;10.10;93.90;;;;;;6240419;23;20016;-64
2024/02/02 14:29:01;;;;;;;13.60;4.65;;;10.10;93.90;;;;;;6239911;23;20008;-64
2024/02/02 14:31:50;;;;;;;9.32;4.70;;;10.00;93.90;;;;;;6239622;23;20441;-64
2024/02/02 14:34:37;;;;;;;12.40;4.85;;;10.10;94.00;;;;;;6239923;23;20015;-65
2024/02/02 14:37:23;;;;;;;14.73;5.88;;;10.00;93.90;;;;;;6241413;23;20011;-65
2024/02/02 14:40:11;;;;;;;12.13;5.43;;;10.00;93.90;;;;;;6239418;23;20012;-64
2024/02/02 14:42:57;;;;;;;11.95;5.97;;;10.00;94.00;;;;;;6240014;23;20020;-64